Time;durP1;ratioP1;P1;durP2;ratioP2;P2;SDS_P1;SDS_P2;PMS_P1;PMS_P2;Temp;Humidity;BMP_temperature;BMP_pressure;BME280_temperature;BME280_humidity;BME280_pressure;Samples;Min_cycle;Max_cycle;Signal;HPM_P1;HPM_P2
2022/07/18 00:01:56;;;;;;;10.70;5.40;;;22.60;24.30;;;;;;4997833;28;20431;-74
2022/07/18 00:04:22;;;;;;;6.80;5.77;;;22.40;24.30;;;;;;4995463;28;20429;-73
2022/07/18 00:06:48;;;;;;;11.63;5.27;;;22.40;24.10;;;;;;4999639;28;20428;-73
2022/07/18 00:09:14;;;;;;;15.23;4.93;;;22.40;23.90;;;;;;4995296;28;21151;-73
2022/07/18 00:11:40;;;;;;;8.60;5.37;;;22.60;24.30;;;;;;5001009;28;20239;-73
2022/07/18 00:14:05;;;;;;;6.30;5.40;;;22.60;25.10;;;;;;4991824;28;20206;-73
2022/07/18 00:16:31;;;;;;;5.90;5.10;;;22.40;24.50;;;;;;4999196;28;20200;-73
2022/07/18 00:18:58;;;;;;;13.60;5.30;;;22.30;24.40;;;;;;5004783;28;20218;-74
2022/07/18 00:21:24;;;;;;;7.47;5.17;;;22.20;24.50;;;;;;4999499;28;20192;-73
2022/07/18 00:23:50;;;;;;;6.40;5.10;;;22.00;25.40;;;;;;4991678;28;20447;-72
2022/07/18 00:26:16;;;;;;;8.60;5.47;;;21.80;25.10;;;;;;4993826;28;20431;-73
2022/07/18 00:28:41;;;;;;;6.23;5.37;;;21.90;25.20;;;;;;5008765;28;20203;-74
2022/07/18 00:31:07;;;;;;;7.30;5.10;;;21.80;25.90;;;;;;4993424;28;20577;-73
2022/07/18 00:33:33;;;;;;;10.90;6.53;;;21.80;27.00;;;;;;4992909;28;20192;-73
2022/07/18 00:35:58;;;;;;;10.67;6.67;;;21.80;26.00;;;;;;5006544;28;20179;-73
2022/07/18 00:38:24;;;;;;;9.80;5.93;;;21.80;26.00;;;;;;5001365;28;20193;-72
2022/07/18 00:40:50;;;;;;;10.13;6.70;;;21.80;27.30;;;;;;4995151;28;20189;-73
2022/07/18 00:43:15;;;;;;;11.00;6.20;;;21.70;27.20;;;;;;5000272;28;20178;-73
2022/07/18 00:45:45;;;;;;;10.40;6.20;;;21.80;26.40;;;;;;4995486;28;20177;-72
2022/07/18 00:48:11;;;;;;;9.07;5.90;;;22.00;25.70;;;;;;4998893;28;20266;-73
2022/07/18 00:50:37;;;;;;;9.80;6.20;;;22.00;25.90;;;;;;5005014;28;20549;-73
2022/07/18 00:53:04;;;;;;;15.10;5.70;;;21.90;25.80;;;;;;5000292;28;20186;-72
2022/07/18 00:55:30;;;;;;;7.73;5.77;;;21.90;25.60;;;;;;4993426;28;20190;-74
2022/07/18 00:57:57;;;;;;;8.00;5.70;;;21.70;26.30;;;;;;4998709;28;20821;-72
2022/07/18 01:03:07;;;;;;;10.37;5.60;;;21.70;25.50;;;;;;4985201;28;20810;-73
2022/07/18 01:05:32;;;;;;;10.10;5.47;;;21.70;25.80;;;;;;5029306;23;20491;-74
2022/07/18 01:07:58;;;;;;;7.50;5.80;;;21.50;25.80;;;;;;5021410;28;20184;-74
2022/07/18 01:10:23;;;;;;;7.93;5.30;;;21.60;26.40;;;;;;5018715;28;20233;-73
2022/07/18 01:12:49;;;;;;;10.63;5.40;;;21.50;26.80;;;;;;5025702;28;20180;-73
2022/07/18 01:15:15;;;;;;;7.50;5.80;;;21.50;26.20;;;;;;5030224;28;20571;-73
2022/07/18 01:17:41;;;;;;;7.80;6.40;;;21.60;26.40;;;;;;5021741;28;20227;-73
2022/07/18 01:20:07;;;;;;;7.83;6.20;;;21.40;26.30;;;;;;5014068;28;20692;-73
2022/07/18 01:22:33;;;;;;;7.63;5.70;;;21.50;26.30;;;;;;5018323;28;20442;-73
2022/07/18 01:24:59;;;;;;;14.20;5.80;;;21.60;25.90;;;;;;5027301;28;20442;-73
2022/07/18 01:27:24;;;;;;;18.93;7.20;;;21.50;25.80;;;;;;5019371;28;20470;-73
2022/07/18 01:29:51;;;;;;;18.43;5.97;;;21.40;26.20;;;;;;5019680;28;20555;-73
2022/07/18 01:32:18;;;;;;;8.20;6.10;;;21.50;27.00;;;;;;5014292;28;20596;-73
2022/07/18 01:34:48;;;;;;;7.00;6.10;;;21.40;27.40;;;;;;5017472;28;20502;-74
2022/07/18 01:37:15;;;;;;;8.63;6.73;;;21.20;26.90;;;;;;5010539;28;20446;-74
2022/07/18 01:39:41;;;;;;;10.30;5.77;;;21.00;27.70;;;;;;5012536;28;20424;-74
2022/07/18 01:42:09;;;;;;;9.80;6.50;;;21.00;28.30;;;;;;5010104;28;20444;-74
2022/07/18 01:44:35;;;;;;;8.70;6.13;;;21.00;28.60;;;;;;5012287;28;20451;-74
2022/07/18 01:47:03;;;;;;;8.20;6.43;;;21.00;28.10;;;;;;5028573;28;20431;-73
2022/07/18 01:49:32;;;;;;;9.63;6.50;;;21.00;28.50;;;;;;5022200;28;20427;-73
2022/07/18 01:51:58;;;;;;;7.27;6.10;;;21.10;27.70;;;;;;5009854;28;20436;-74
2022/07/18 01:54:29;;;;;;;9.87;6.23;;;20.90;28.40;;;;;;5010213;28;20931;-74
2022/07/18 01:56:56;;;;;;;9.23;6.30;;;21.00;27.70;;;;;;5008470;28;20427;-74
2022/07/18 01:59:22;;;;;;;13.33;6.10;;;21.00;27.60;;;;;;5014898;28;20427;-74
2022/07/18 02:01:48;;;;;;;8.23;6.17;;;20.80;28.00;;;;;;5010868;28;20435;-73
2022/07/18 02:04:13;;;;;;;9.20;6.57;;;20.80;27.80;;;;;;5025637;28;20585;-73
2022/07/18 02:06:39;;;;;;;7.87;6.20;;;20.80;28.30;;;;;;5011222;28;20651;-73
2022/07/18 02:09:06;;;;;;;8.03;6.17;;;20.80;27.90;;;;;;5019364;28;20524;-73
2022/07/18 02:11:33;;;;;;;8.60;5.83;;;20.60;28.90;;;;;;5017076;28;20204;-73
2022/07/18 02:13:58;;;;;;;8.50;5.93;;;20.60;28.60;;;;;;5020537;28;20493;-73
2022/07/18 02:16:24;;;;;;;14.77;6.53;;;20.30;28.40;;;;;;5018049;28;20457;-73
2022/07/18 02:18:50;;;;;;;10.93;5.50;;;20.50;28.80;;;;;;5020347;28;20180;-73
2022/07/18 02:21:15;;;;;;;19.13;6.30;;;20.40;28.30;;;;;;5027406;28;20186;-74
2022/07/18 02:23:43;;;;;;;7.67;5.77;;;20.40;28.00;;;;;;5017819;28;20234;-73
2022/07/18 02:26:08;;;;;;;8.30;5.60;;;20.30;27.30;;;;;;5030671;28;20176;-73
2022/07/18 02:28:34;;;;;;;17.00;5.70;;;20.30;27.50;;;;;;5020599;28;20434;-73
2022/07/18 02:31:00;;;;;;;7.50;5.83;;;20.30;28.00;;;;;;5011782;28;20302;-73
2022/07/18 02:33:26;;;;;;;9.63;5.80;;;20.30;27.90;;;;;;5016607;28;20857;-73
2022/07/18 02:35:52;;;;;;;7.00;5.90;;;20.30;27.80;;;;;;5025237;28;20207;-73
2022/07/18 02:38:17;;;;;;;8.23;5.83;;;20.50;28.00;;;;;;5022925;28;20177;-73
2022/07/18 02:40:43;;;;;;;7.77;5.70;;;20.50;28.10;;;;;;5021390;28;20794;-74
2022/07/18 02:43:09;;;;;;;9.80;5.87;;;20.20;28.30;;;;;;5021888;28;20189;-73
2022/07/18 02:45:35;;;;;;;10.13;6.33;;;20.40;28.40;;;;;;5018706;28;20219;-73
2022/07/18 02:48:01;;;;;;;7.93;6.07;;;20.20;29.00;;;;;;5024891;28;20183;-73
2022/07/18 02:50:27;;;;;;;6.37;5.67;;;20.20;28.60;;;;;;5022374;28;20467;-73
2022/07/18 02:52:53;;;;;;;10.07;6.23;;;20.20;28.60;;;;;;5018083;28;20547;-73
2022/07/18 02:55:18;;;;;;;11.33;5.70;;;20.20;28.70;;;;;;5022418;28;20810;-73
2022/07/18 02:57:44;;;;;;;10.20;5.97;;;20.10;29.20;;;;;;5016512;28;20575;-73
2022/07/18 03:00:13;;;;;;;8.10;5.83;;;20.00;28.80;;;;;;5019153;28;20227;-73
2022/07/18 03:02:39;;;;;;;9.53;6.37;;;19.90;29.60;;;;;;5015538;28;20183;-73
2022/07/18 03:05:06;;;;;;;9.80;5.30;;;19.90;28.50;;;;;;5006971;28;20472;-73
2022/07/18 03:07:32;;;;;;;10.97;6.60;;;20.00;29.40;;;;;;5021374;28;20688;-73
2022/07/18 03:09:57;;;;;;;10.10;6.33;;;19.80;29.90;;;;;;5020980;28;20602;-73
2022/07/18 03:12:23;;;;;;;10.73;6.60;;;19.90;28.90;;;;;;5024314;28;20557;-73
2022/07/18 03:14:49;;;;;;;8.23;6.13;;;19.80;29.50;;;;;;5022059;28;20196;-73
2022/07/18 03:17:15;;;;;;;6.80;5.60;;;19.90;29.60;;;;;;4998871;28;20186;-73
2022/07/18 03:19:40;;;;;;;6.60;6.00;;;20.00;29.40;;;;;;5024091;28;20419;-73
2022/07/18 03:22:06;;;;;;;9.23;5.83;;;19.80;29.20;;;;;;5013634;28;20562;-73
2022/07/18 03:24:32;;;;;;;10.13;5.80;;;19.80;29.80;;;;;;5020967;28;20245;-73
2022/07/18 03:26:58;;;;;;;7.40;6.17;;;19.80;30.00;;;;;;5018692;28;20655;-73
2022/07/18 03:29:24;;;;;;;8.10;6.20;;;19.90;29.20;;;;;;5022300;28;20421;-73
2022/07/18 03:31:50;;;;;;;10.07;6.67;;;19.90;29.10;;;;;;5022544;28;20437;-73
2022/07/18 03:34:16;;;;;;;7.40;6.27;;;19.80;29.20;;;;;;5018118;28;20956;-73
2022/07/18 03:36:42;;;;;;;7.30;6.60;;;19.80;29.30;;;;;;5022253;28;20432;-73
2022/07/18 03:39:08;;;;;;;9.07;6.30;;;19.80;29.50;;;;;;5010131;28;20195;-73
2022/07/18 03:41:34;;;;;;;9.17;6.87;;;19.70;29.40;;;;;;5015592;28;20451;-73
2022/07/18 03:44:01;;;;;;;8.33;6.57;;;19.80;29.20;;;;;;5016250;28;20544;-73
2022/07/18 03:46:26;;;;;;;15.77;7.20;;;19.60;30.00;;;;;;5027025;28;20887;-73
2022/07/18 03:48:52;;;;;;;11.67;6.87;;;19.70;29.90;;;;;;5009458;28;20434;-73
2022/07/18 03:51:18;;;;;;;11.67;7.30;;;19.80;30.20;;;;;;5014124;28;20238;-73
2022/07/18 03:53:43;;;;;;;7.83;6.53;;;19.60;30.60;;;;;;5016364;28;20736;-73
2022/07/18 03:56:09;;;;;;;9.07;6.77;;;19.50;30.60;;;;;;5013130;28;20193;-73
2022/07/18 03:58:35;;;;;;;14.80;7.00;;;19.60;30.70;;;;;;5007541;28;20665;-73
2022/07/18 04:01:00;;;;;;;10.20;7.00;;;19.60;30.20;;;;;;5005263;28;20191;-73
2022/07/18 04:03:26;;;;;;;10.90;7.60;;;19.70;30.40;;;;;;5019532;28;20332;-73
2022/07/18 04:05:52;;;;;;;9.13;7.07;;;19.80;30.00;;;;;;5018806;28;20485;-73
2022/07/18 04:08:18;;;;;;;14.93;6.73;;;19.80;30.00;;;;;;5021396;28;20199;-73
2022/07/18 04:10:43;;;;;;;10.77;7.40;;;19.90;29.90;;;;;;5007586;28;20207;-73
2022/07/18 04:13:09;;;;;;;14.50;7.20;;;20.00;29.70;;;;;;5019237;28;20551;-73
2022/07/18 04:15:36;;;;;;;12.57;7.00;;;19.90;29.90;;;;;;5023169;28;20202;-73
2022/07/18 04:18:03;;;;;;;14.90;7.07;;;19.90;30.10;;;;;;5015798;28;20548;-73
2022/07/18 04:20:29;;;;;;;9.17;6.67;;;19.90;30.20;;;;;;5004796;28;20515;-73
2022/07/18 04:23:00;;;;;;;13.07;7.10;;;19.80;30.00;;;;;;5012129;28;21021;-73
2022/07/18 04:25:29;;;;;;;11.33;6.87;;;19.70;29.90;;;;;;5020321;28;20272;-73
2022/07/18 04:27:55;;;;;;;10.20;6.73;;;19.70;29.80;;;;;;5020004;28;20496;-73
2022/07/18 04:30:23;;;;;;;12.17;6.80;;;19.70;29.20;;;;;;5012724;28;20454;-73
2022/07/18 04:32:49;;;;;;;19.53;7.07;;;19.70;29.20;;;;;;5009388;28;20461;-73
2022/07/18 04:35:15;;;;;;;15.63;8.27;;;19.80;29.10;;;;;;5019328;28;20443;-73
2022/07/18 04:37:41;;;;;;;15.93;11.20;;;19.90;29.50;;;;;;5010575;28;20589;-73
2022/07/18 04:40:08;;;;;;;13.50;9.80;;;19.80;29.00;;;;;;5012483;28;20951;-73
2022/07/18 04:42:34;;;;;;;13.83;7.80;;;19.70;29.60;;;;;;5015979;28;20198;-73
2022/07/18 04:45:00;;;;;;;15.07;7.40;;;19.70;29.40;;;;;;5020589;28;20458;-73
2022/07/18 04:47:29;;;;;;;9.90;7.70;;;19.60;29.30;;;;;;5014591;28;20250;-73
2022/07/18 04:49:54;;;;;;;14.13;8.10;;;19.50;29.50;;;;;;5016830;28;20451;-73
2022/07/18 04:52:21;;;;;;;13.90;7.43;;;19.50;29.20;;;;;;5013930;28;20572;-73
2022/07/18 04:54:46;;;;;;;16.43;7.00;;;19.50;29.30;;;;;;5012016;28;20198;-73
2022/07/18 04:57:14;;;;;;;14.33;9.60;;;19.60;29.80;;;;;;5018526;28;20456;-73
2022/07/18 04:59:41;;;;;;;19.93;11.30;;;19.40;29.70;;;;;;4993923;28;20180;-73
2022/07/18 05:02:07;;;;;;;19.53;10.50;;;19.80;29.10;;;;;;5015479;28;20433;-73
2022/07/18 05:04:33;;;;;;;13.40;9.27;;;19.60;29.60;;;;;;5015336;28;20466;-73
2022/07/18 05:06:59;;;;;;;17.53;8.57;;;19.60;29.40;;;;;;5019137;28;20476;-73
2022/07/18 05:09:25;;;;;;;17.90;9.47;;;19.90;29.20;;;;;;5015434;28;20779;-73
2022/07/18 05:11:51;;;;;;;22.43;12.10;;;20.20;29.40;;;;;;5013502;28;20216;-73
2022/07/18 05:14:17;;;;;;;15.70;9.80;;;20.30;28.80;;;;;;5011719;28;20516;-73
2022/07/18 05:16:42;;;;;;;13.00;9.83;;;19.80;29.00;;;;;;5014377;28;20183;-73
2022/07/18 05:19:08;;;;;;;25.67;11.77;;;19.70;29.40;;;;;;5016344;28;20273;-73
2022/07/18 05:21:34;;;;;;;25.07;10.60;;;19.70;30.00;;;;;;5005334;28;20306;-73
2022/07/18 05:23:59;;;;;;;14.83;10.97;;;19.40;29.70;;;;;;5004047;28;20212;-73
2022/07/18 05:26:25;;;;;;;16.17;11.10;;;19.10;30.80;;;;;;4992920;28;20667;-73
2022/07/18 05:28:51;;;;;;;15.47;8.97;;;19.50;29.80;;;;;;5008869;28;20652;-73
2022/07/18 05:31:16;;;;;;;16.13;8.33;;;19.30;29.80;;;;;;5006145;28;20311;-73
2022/07/18 05:33:42;;;;;;;18.33;7.87;;;19.40;30.00;;;;;;5008888;28;20181;-73
2022/07/18 05:36:08;;;;;;;22.50;8.40;;;19.70;29.50;;;;;;5013339;28;20633;-73
2022/07/18 05:38:34;;;;;;;20.30;8.17;;;20.20;29.40;;;;;;5005646;28;20210;-73
2022/07/18 05:40:59;;;;;;;13.90;9.10;;;20.40;29.60;;;;;;5020730;28;20933;-73
2022/07/18 05:43:25;;;;;;;16.00;9.63;;;20.60;28.80;;;;;;5019112;28;20198;-73
2022/07/18 05:45:51;;;;;;;19.17;11.10;;;20.70;28.40;;;;;;5011532;28;20235;-73
2022/07/18 05:48:16;;;;;;;14.33;9.60;;;20.80;29.10;;;;;;5010689;28;20255;-73
2022/07/18 05:50:42;;;;;;;14.10;8.93;;;20.90;28.00;;;;;;5013062;28;20218;-73
2022/07/18 05:53:07;;;;;;;20.73;8.73;;;22.20;29.70;;;;;;5013551;28;20182;-73
2022/07/18 05:55:33;;;;;;;18.83;8.23;;;20.80;27.30;;;;;;5016711;28;20211;-73
2022/07/18 05:57:59;;;;;;;16.13;8.77;;;20.60;28.00;;;;;;5014135;28;20198;-73
2022/07/18 06:00:24;;;;;;;13.03;7.60;;;20.40;27.70;;;;;;5011774;28;20633;-73
2022/07/18 06:02:50;;;;;;;8.90;6.80;;;20.70;28.30;;;;;;5019632;28;20185;-73
2022/07/18 06:05:17;;;;;;;15.87;6.30;;;21.10;28.70;;;;;;5020250;28;20212;-74
2022/07/18 06:07:42;;;;;;;14.07;7.07;;;21.10;26.90;;;;;;5013957;28;20181;-73
2022/07/18 06:10:08;;;;;;;10.43;7.87;;;20.80;27.20;;;;;;5013667;28;20600;-73
2022/07/18 06:12:34;;;;;;;18.17;7.80;;;20.70;27.90;;;;;;5023261;28;20663;-74
2022/07/18 06:15:00;;;;;;;16.90;7.30;;;20.80;27.50;;;;;;5004034;28;20457;-74
2022/07/18 06:17:28;;;;;;;16.17;8.33;;;20.90;27.70;;;;;;5020942;28;20223;-74
2022/07/18 06:19:55;;;;;;;23.23;7.77;;;21.20;26.90;;;;;;5017270;28;20438;-74
2022/07/18 06:22:22;;;;;;;20.03;7.63;;;21.30;26.90;;;;;;5019532;28;20444;-73
2022/07/18 06:24:48;;;;;;;19.30;9.57;;;21.70;28.60;;;;;;5019161;28;20498;-74
2022/07/18 06:27:13;;;;;;;24.03;8.37;;;22.10;25.80;;;;;;5018575;28;20439;-74
2022/07/18 06:29:39;;;;;;;12.67;8.27;;;21.50;25.80;;;;;;5017187;28;20433;-73
2022/07/18 06:32:05;;;;;;;15.50;7.17;;;21.40;26.40;;;;;;5025765;28;20652;-74
2022/07/18 06:34:31;;;;;;;9.33;6.00;;;21.50;25.20;;;;;;5009767;28;20207;-74
2022/07/18 06:36:56;;;;;;;11.90;6.23;;;21.30;26.30;;;;;;5006456;28;20446;-74
2022/07/18 06:39:22;;;;;;;7.30;5.93;;;21.50;25.80;;;;;;5016056;28;20209;-74
2022/07/18 06:41:47;;;;;;;14.27;6.67;;;21.90;27.20;;;;;;5021672;28;20229;-74
2022/07/18 06:44:13;;;;;;;14.80;7.10;;;23.50;25.90;;;;;;5012870;28;20208;-74
2022/07/18 06:46:39;;;;;;;14.10;6.47;;;21.60;24.70;;;;;;5019581;28;20189;-74
2022/07/18 06:49:06;;;;;;;14.17;6.73;;;21.60;25.10;;;;;;5015520;28;20199;-74
2022/07/18 06:51:31;;;;;;;11.67;6.10;;;21.60;24.80;;;;;;5008345;28;20467;-73
2022/07/18 06:53:57;;;;;;;11.63;6.57;;;21.50;25.10;;;;;;5010790;28;20472;-73
2022/07/18 06:56:23;;;;;;;12.93;6.10;;;21.80;25.50;;;;;;5019128;28;20188;-73
2022/07/18 06:58:50;;;;;;;12.90;6.43;;;22.40;26.20;;;;;;5003391;28;20433;-73
2022/07/18 07:01:16;;;;;;;16.20;5.97;;;22.90;24.30;;;;;;5015096;28;20176;-73
2022/07/18 07:03:42;;;;;;;20.13;7.73;;;23.10;24.50;;;;;;5023786;28;20465;-73
2022/07/18 07:06:08;;;;;;;17.10;7.57;;;23.30;23.00;;;;;;5023450;28;20433;-73
2022/07/18 07:08:34;;;;;;;15.30;8.50;;;23.10;23.20;;;;;;5019698;28;20227;-73
2022/07/18 07:11:00;;;;;;;14.97;8.50;;;23.20;23.20;;;;;;5018092;28;20545;-73
2022/07/18 07:13:26;;;;;;;14.20;7.57;;;23.00;23.10;;;;;;5029511;28;20819;-73
2022/07/18 07:15:51;;;;;;;20.83;8.53;;;23.10;23.30;;;;;;5022187;28;20479;-74
2022/07/18 07:18:17;;;;;;;9.83;8.13;;;23.50;23.20;;;;;;5019137;28;20619;-74
2022/07/18 07:20:43;;;;;;;11.33;6.93;;;23.20;22.50;;;;;;5022925;28;20241;-74
2022/07/18 07:23:08;;;;;;;12.03;8.10;;;23.20;22.00;;;;;;5023695;28;20188;-74
2022/07/18 07:25:36;;;;;;;18.40;7.47;;;23.50;22.50;;;;;;5029620;28;20234;-74
2022/07/18 07:28:02;;;;;;;11.43;6.73;;;23.80;22.00;;;;;;5030107;28;20183;-74
2022/07/18 07:30:28;;;;;;;6.90;6.50;;;24.20;21.70;;;;;;5015480;28;20504;-74
2022/07/18 07:32:54;;;;;;;13.47;6.10;;;;;;;;;;5042842;23;20187;-78
2022/07/18 07:35:20;;;;;;;8.93;6.20;;;24.70;20.80;;;;;;4982704;28;20451;-79
2022/07/18 07:37:57;;;;;;;6.70;6.30;;;24.90;20.30;;;;;;5007512;28;20431;-79
2022/07/18 07:40:25;;;;;;;9.53;6.50;;;24.80;18.70;;;;;;5000835;28;20439;-78
2022/07/18 07:42:51;;;;;;;6.60;6.20;;;23.90;19.40;;;;;;5011846;28;20438;-79
2022/07/18 07:45:18;;;;;;;5.80;5.50;;;23.90;19.50;;;;;;5017034;28;20427;-78
2022/07/18 07:47:44;;;;;;;5.97;5.67;;;23.70;20.10;;;;;;5001414;28;20447;-78
2022/07/18 07:50:11;;;;;;;6.77;5.50;;;23.60;20.10;;;;;;4997694;28;20462;-77
2022/07/18 07:52:38;;;;;;;12.23;6.27;;;23.70;20.40;;;;;;5000840;28;20460;-77
2022/07/18 07:55:05;;;;;;;6.30;5.87;;;24.10;19.60;;;;;;4995021;28;20813;-79
2022/07/18 07:57:31;;;;;;;12.70;6.80;;;24.40;20.30;;;;;;5006441;28;20931;-78
2022/07/18 07:59:57;;;;;;;21.40;5.70;;;24.60;19.70;;;;;;4989257;28;20512;-78
2022/07/18 08:02:22;;;;;;;11.00;5.90;;;24.80;20.10;;;;;;4996828;28;20432;-78
2022/07/18 08:04:49;;;;;;;8.33;5.90;;;25.20;20.00;;;;;;5001074;28;20205;-78
2022/07/18 08:07:16;;;;;;;5.90;5.50;;;25.00;18.70;;;;;;5012858;28;20183;-78
2022/07/18 08:09:41;;;;;;;7.23;5.63;;;25.00;18.40;;;;;;5000604;28;20444;-78
2022/07/18 08:12:07;;;;;;;9.97;5.13;;;25.10;19.10;;;;;;5003760;28;20432;-78
2022/07/18 08:14:35;;;;;;;8.43;5.10;;;25.20;17.90;;;;;;5003148;28;20207;-78
2022/07/18 08:17:00;;;;;;;11.70;5.27;;;25.20;19.20;;;;;;4997195;28;20184;-79
2022/07/18 08:19:26;;;;;;;8.00;5.67;;;25.50;18.00;;;;;;4997529;28;20428;-79
2022/07/18 08:21:51;;;;;;;18.77;6.70;;;26.10;18.00;;;;;;4997495;28;20193;-78
2022/07/18 08:24:17;;;;;;;7.97;5.70;;;25.90;17.40;;;;;;5005654;28;20301;-79
2022/07/18 08:26:43;;;;;;;9.03;5.40;;;25.80;17.60;;;;;;5002209;28;20551;-78
2022/07/18 08:29:08;;;;;;;12.43;5.50;;;25.70;17.90;;;;;;4994479;28;20177;-79
2022/07/18 08:31:34;;;;;;;15.13;5.23;;;26.00;18.00;;;;;;4998492;28;20228;-78
2022/07/18 08:34:00;;;;;;;9.30;5.37;;;26.30;17.30;;;;;;4995208;28;20232;-79
2022/07/18 08:36:26;;;;;;;14.33;5.73;;;25.90;18.10;;;;;;4986427;28;20534;-78
2022/07/18 08:38:52;;;;;;;13.73;5.73;;;25.80;18.70;;;;;;5001221;28;20173;-79
2022/07/18 08:41:17;;;;;;;9.87;5.80;;;25.90;18.40;;;;;;5005762;28;20417;-78
2022/07/18 08:43:45;;;;;;;12.07;5.77;;;26.00;18.40;;;;;;4997659;28;20452;-78
2022/07/18 08:46:12;;;;;;;6.50;4.90;;;26.80;17.00;;;;;;4999058;28;20189;-79
2022/07/18 08:48:42;;;;;;;8.33;5.60;;;26.80;17.40;;;;;;4989170;28;20430;-78
2022/07/18 08:51:08;;;;;;;8.50;4.67;;;26.80;18.20;;;;;;4982294;28;20515;-77
2022/07/18 08:53:37;;;;;;;9.90;5.97;;;26.70;18.50;;;;;;4983293;28;20538;-79
2022/07/18 08:56:03;;;;;;;10.60;5.10;;;26.60;18.00;;;;;;4998031;28;20421;-79
2022/07/18 08:58:29;;;;;;;24.53;5.50;;;26.80;18.00;;;;;;4999669;28;20396;-79
2022/07/18 09:00:57;;;;;;;8.63;5.40;;;26.90;17.80;;;;;;4995912;28;20991;-79
2022/07/18 09:03:24;;;;;;;14.00;5.27;;;27.10;17.50;;;;;;4988099;28;20232;-79
2022/07/18 09:06:10;;;;;;;13.90;5.10;;;27.30;17.10;;;;;;4992686;28;20948;-78
2022/07/18 09:08:38;;;;;;;6.83;4.80;;;27.30;17.00;;;;;;4988565;28;20428;-79
2022/07/18 09:11:08;;;;;;;8.23;4.80;;;27.40;17.10;;;;;;4992261;28;20473;-79
2022/07/18 09:13:34;;;;;;;7.13;5.00;;;27.50;17.20;;;;;;4981891;28;20484;-78
2022/07/18 09:16:01;;;;;;;6.77;4.80;;;27.80;17.30;;;;;;4996031;28;20416;-79
2022/07/18 09:18:31;;;;;;;13.30;5.20;;;27.70;18.00;;;;;;4998910;28;20165;-79
2022/07/18 09:21:03;;;;;;;14.33;5.03;;;28.40;17.30;;;;;;4999040;28;20472;-79
2022/07/18 09:23:31;;;;;;;7.83;4.43;;;28.70;15.20;;;;;;4994682;28;20460;-78
2022/07/18 09:25:57;;;;;;;11.40;4.70;;;28.20;15.70;;;;;;4990509;28;20434;-77
2022/07/18 09:28:23;;;;;;;5.43;4.47;;;28.40;17.30;;;;;;4988823;28;20851;-78
2022/07/18 09:30:48;;;;;;;13.50;5.00;;;28.20;14.80;;;;;;4992254;28;20457;-77
2022/07/18 09:33:15;;;;;;;8.77;4.70;;;28.30;16.40;;;;;;4987584;28;20209;-79
2022/07/18 09:35:46;;;;;;;11.20;4.60;;;28.90;15.20;;;;;;4990945;28;20177;-77
2022/07/18 09:38:14;;;;;;;9.90;4.87;;;29.40;14.10;;;;;;4987240;28;20460;-78
2022/07/18 09:40:51;;;;;;;7.77;4.87;;;29.60;13.30;;;;;;4997091;28;20486;-80
2022/07/18 09:43:19;;;;;;;5.37;4.40;;;29.80;13.80;;;;;;4979843;28;20455;-78
2022/07/18 09:45:50;;;;;;;5.57;4.37;;;30.10;14.20;;;;;;4996069;28;20555;-79
2022/07/18 09:48:21;;;;;;;9.10;4.10;;;30.50;12.70;;;;;;4992724;28;20495;-79
2022/07/18 09:51:01;;;;;;;6.30;4.20;;;30.30;12.70;;;;;;4995136;28;20585;-81
2022/07/18 09:53:30;;;;;;;7.20;4.60;;;30.50;11.80;;;;;;4995105;28;20434;-80
2022/07/18 09:55:58;;;;;;;11.87;4.10;;;30.50;12.50;;;;;;4994644;28;20416;-78
2022/07/18 09:58:26;;;;;;;8.33;4.13;;;30.70;10.50;;;;;;4989928;28;20432;-80
2022/07/18 10:00:54;;;;;;;5.17;4.00;;;30.70;11.90;;;;;;4991241;28;20444;-78
2022/07/18 10:03:20;;;;;;;10.27;4.00;;;30.70;10.90;;;;;;4995262;28;20547;-77
2022/07/18 10:05:48;;;;;;;5.93;4.30;;;30.80;11.90;;;;;;4992280;28;20448;-79
2022/07/18 10:08:16;;;;;;;13.23;4.40;;;31.20;11.80;;;;;;4994126;28;21039;-77
2022/07/18 10:10:44;;;;;;;6.93;4.10;;;31.50;11.40;;;;;;4981788;28;20893;-75
2022/07/18 10:13:10;;;;;;;7.27;3.97;;;31.40;9.70;;;;;;4995711;28;20479;-77
2022/07/18 10:15:39;;;;;;;11.33;4.13;;;31.50;10.60;;;;;;4991228;28;20989;-79
2022/07/18 10:18:07;;;;;;;14.93;4.30;;;31.60;11.50;;;;;;4994776;28;20437;-79
2022/07/18 10:20:36;;;;;;;15.83;4.73;;;31.50;10.20;;;;;;4991354;28;20508;-78
2022/07/18 10:23:46;;;;;;;11.23;4.20;;;31.10;9.00;;;;;;4994420;28;20420;-79
2022/07/18 10:26:30;;;;;;;5.00;4.03;;;31.10;9.80;;;;;;4895371;29;20457;-79
2022/07/18 10:28:56;;;;;;;5.13;3.70;;;30.70;10.10;;;;;;4906170;29;20532;-78
2022/07/18 10:31:28;;;;;;;9.37;3.97;;;30.90;11.30;;;;;;4878172;29;20513;-80
2022/07/18 10:34:09;;;;;;;12.83;4.20;;;31.30;10.60;;;;;;4887163;29;20216;-80
2022/07/18 10:36:51;;;;;;;5.63;4.70;;;31.90;11.30;;;;;;4894158;29;20548;-79
2022/07/18 10:39:23;;;;;;;10.00;4.10;;;32.00;9.60;;;;;;4894846;29;20444;-79
2022/07/18 10:41:52;;;;;;;4.70;3.93;;;32.20;11.40;;;;;;4906638;29;20445;-79
2022/07/18 10:44:23;;;;;;;5.40;3.90;;;32.60;10.70;;;;;;4904838;29;20464;-79
2022/07/18 10:49:59;;;;;;;4.87;4.00;;;32.50;9.10;;;;;;4865551;29;20447;-78
2022/07/18 10:52:28;;;;;;;8.83;4.10;;;32.20;9.90;;;;;;4865834;29;20522;-78
2022/07/18 10:57:33;;;;;;;7.67;4.20;;;31.90;8.80;;;;;;4862896;29;20470;-77
2022/07/18 11:00:01;;;;;;;6.57;4.33;;;32.10;10.10;;;;;;4861714;29;20461;-79
2022/07/18 11:02:34;;;;;;;5.50;3.70;;;32.40;10.20;;;;;;4888402;29;20523;-78
2022/07/18 11:04:59;;;;;;;8.13;4.00;;;32.80;9.10;;;;;;4919214;29;20951;-78
2022/07/18 11:07:25;;;;;;;5.80;4.17;;;33.40;9.50;;;;;;4915700;29;20463;-77
2022/07/18 11:09:51;;;;;;;4.30;4.00;;;33.70;8.50;;;;;;4918009;29;20200;-77
2022/07/18 11:12:24;;;;;;;6.63;3.90;;;33.50;7.20;;;;;;4916577;29;20764;-78
2022/07/18 11:15:13;;;;;;;8.63;4.03;;;32.70;9.00;;;;;;4917144;29;20204;-77
2022/07/18 11:17:55;;;;;;;5.37;3.67;;;32.60;9.10;;;;;;4920426;29;20443;-78
2022/07/18 11:20:26;;;;;;;7.07;3.80;;;33.50;11.30;;;;;;4923657;29;20440;-78
2022/07/18 11:22:52;;;;;;;6.17;3.90;;;34.10;8.70;;;;;;4917327;29;20491;-77
2022/07/18 11:25:18;;;;;;;4.80;3.47;;;34.40;10.60;;;;;;4924160;28;20432;-78
2022/07/18 11:27:44;;;;;;;6.83;4.07;;;34.50;8.50;;;;;;4995755;28;20244;-77
2022/07/18 11:30:20;;;;;;;7.60;4.03;;;34.90;7.50;;;;;;4991068;28;20465;-78
2022/07/18 11:32:46;;;;;;;5.90;3.90;;;34.30;7.40;;;;;;4993573;28;20450;-75
2022/07/18 11:35:13;;;;;;;8.33;4.37;;;34.30;8.30;;;;;;4992507;28;20871;-79
2022/07/18 11:37:46;;;;;;;9.43;3.93;;;34.20;7.40;;;;;;5002441;28;20190;-79
2022/07/18 11:40:13;;;;;;;4.27;3.80;;;35.50;7.90;;;;;;4992207;28;20448;-78
2022/07/18 11:42:40;;;;;;;7.50;3.63;;;37.30;6.60;;;;;;4994801;28;20436;-79
2022/07/18 11:45:08;;;;;;;6.50;3.67;;;37.90;4.90;;;;;;5004736;28;20467;-79
2022/07/18 11:47:47;;;;;;;6.83;3.50;;;37.80;4.80;;;;;;4998645;28;20437;-78
2022/07/18 11:50:13;;;;;;;3.90;3.30;;;38.60;4.70;;;;;;5000746;28;20499;-78
2022/07/18 11:52:39;;;;;;;9.37;4.00;;;38.70;4.00;;;;;;4999921;28;20428;-75
2022/07/18 11:55:06;;;;;;;5.20;3.90;;;38.10;4.20;;;;;;5002426;28;20539;-75
2022/07/18 11:57:32;;;;;;;6.10;4.07;;;37.70;3.60;;;;;;4998814;28;20185;-75
2022/07/18 12:00:00;;;;;;;7.20;3.60;;;37.70;4.90;;;;;;4992124;28;20491;-75
2022/07/18 12:03:04;;;;;;;10.97;3.80;;;37.60;5.80;;;;;;4999368;28;20472;-75
2022/07/18 12:05:48;;;;;;;4.13;3.70;;;38.00;4.30;;;;;;4970894;28;20940;-75
2022/07/18 12:08:47;;;;;;;7.20;3.87;;;38.20;4.60;;;;;;4969032;28;20449;-76
2022/07/18 12:11:18;;;;;;;6.10;3.40;;;38.80;4.50;;;;;;4988012;28;20498;-75
2022/07/18 12:13:50;;;;;;;8.10;3.67;;;39.20;4.50;;;;;;4991636;28;20465;-75
2022/07/18 12:16:33;;;;;;;15.43;3.40;;;38.90;4.00;;;;;;4996931;28;20425;-76
2022/07/18 12:18:59;;;;;;;6.40;3.50;;;38.50;2.60;;;;;;5001645;28;20511;-76
2022/07/18 12:21:37;;;;;;;7.23;3.50;;;37.90;5.90;;;;;;4994022;28;21042;-75
2022/07/18 12:24:26;;;;;;;9.60;4.00;;;37.30;4.10;;;;;;4998843;28;20691;-75
2022/07/18 12:27:23;;;;;;;5.30;3.60;;;37.20;6.60;;;;;;4997333;28;20429;-74
2022/07/18 12:30:06;;;;;;;6.73;4.10;;;37.60;5.10;;;;;;4991126;28;20440;-75
2022/07/18 12:32:43;;;;;;;7.77;4.33;;;38.70;3.80;;;;;;4986012;28;20651;-76
2022/07/18 12:35:10;;;;;;;9.80;4.00;;;38.90;2.80;;;;;;4980778;28;20563;-75
2022/07/18 12:37:36;;;;;;;7.40;3.80;;;39.00;3.40;;;;;;4990944;28;21015;-76
2022/07/18 12:40:09;;;;;;;6.63;3.73;;;39.60;2.70;;;;;;4988178;28;20480;-75
2022/07/18 12:42:42;;;;;;;6.77;3.77;;;40.00;2.40;;;;;;4986994;28;20182;-76
2022/07/18 12:45:10;;;;;;;8.20;3.60;;;40.20;3.10;;;;;;4987962;28;20455;-76
2022/07/18 12:47:36;;;;;;;5.60;3.80;;;40.30;2.30;;;;;;4988606;28;20475;-75
2022/07/18 12:50:02;;;;;;;10.70;4.40;;;40.00;2.40;;;;;;4977876;28;20445;-74
2022/07/18 12:52:28;;;;;;;5.80;4.00;;;39.00;1.10;;;;;;4990830;28;20540;-74
2022/07/18 12:54:53;;;;;;;8.67;4.00;;;37.30;4.00;;;;;;4988885;28;20532;-74